Latest Coastal Weather Observations for Parndana

IDS60701

Issued at 5:21 pm CST Tuesday 17 July 2018 (issued every 10 minutes, with the page automatically refreshed every 10 minutes)

About coastal observations | Map of coastal stations | Coastal observations for SA | Marine services | Other Formats
Station Details ID: 022843 Name: PARNDANA CFS AWS Lat: -35.79 Lon: 137.25 Height: 165.0 m
Data from the previous 72 hours. | See also: Recent months at Parndana
Date/Time
CST
Temp
°C
Wind Pressure Rain since
9am
mm
Weather Cloud Vis
km
Sea
Height
m
Swell
Dir  Spd
kts
Gust
kts
hPa Trend Height
m
Period
s
Dir
17/05:00pm 10.8 WNW 13 22 - - 2.6 - - - - - - -
17/04:30pm 11.1 W 16 24 - - 2.6 - - - - - - -
17/04:11pm 11.6 W 19 31 - - 2.6 - - - - - - -
17/04:00pm 11.7 W 18 24 - - 2.6 - - - - - - -
17/03:30pm 12.0 WSW 16 23 - - 2.6 - - - - - - -
17/03:00pm 12.1 W 21 31 - - 2.6 - - - - - - -
17/02:34pm 12.4 W 21 35 - - 2.6 - - - - - - -
17/02:30pm 12.4 W 20 29 - - 2.6 - - - - - - -
17/02:03pm 11.9 W 23 34 - - 2.6 - - - - - - -
17/02:00pm 12.1 W 24 34 - - 2.6 - - - - - - -
17/01:30pm 11.3 W 21 33 - - 2.6 - - - - - - -
17/01:12pm 11.1 W 19 29 - - 2.6 - - - - - - -
17/01:00pm 10.3 W 22 31 - - 2.6 - - - - - - -
17/12:30pm 11.0 W 21 29 - - 2.4 - - - - - - -
17/12:00pm 9.1 W 22 33 - - 2.4 Recent precip. - - - - - -
17/11:30am 11.0 W 27 39 - - 2.2 - - - - - - -
17/11:09am 10.7 W 24 34 - - 2.2 - - - - - - -
17/11:00am 10.4 W 23 32 - - 2.2 - - - - - - -
17/10:30am 8.0 W 33 52 - - 2.2 - - - - - - -
17/10:29am 7.8 W 33 52 - - 2.2 - - - - - - -
17/10:26am 7.2 W 30 52 - - 2.2 - - - - - - -
17/10:23am 7.6 W 26 52 - - 2.0 - - - - - - -
17/10:22am 8.7 WNW 23 52 - - 1.8 - - - - - - -
17/10:19am 9.4 WNW 19 30 - - 1.6 - - - - - - -
17/10:00am 8.9 WNW 17 22 - - 1.2 - - - - - - -
17/09:45am 7.7 W 26 40 - - 1.2 - - - - - - -
17/09:38am 7.5 W 33 59 - - 1.0 - - - - - - -
17/09:33am 7.9 WNW 27 59 - - 0.8 - - - - - - -
17/09:32am 10.1 WNW 24 48 - - 0.8 - - - - - - -
17/09:30am 11.1 WNW 21 33 - - 0.0 - - - - - - -
17/09:26am 10.9 WNW 20 30 - - 0.0 - - - - - - -
17/09:00am 9.7 WNW 19 28 - - 6.8 Recent precip. - - - - - -
17/08:49am 9.3 WNW 23 33 - - 6.8 - - - - - - -
17/08:30am 9.0 WNW 31 42 - - 6.4 - - - - - - -
17/08:20am 8.6 WNW 24 45 - - 5.8 - - - - - - -
17/08:18am 9.1 WNW 20 45 - - 5.6 - - - - - - -
17/08:17am 10.3 WNW 18 45 - - 5.4 - - - - - - -
17/08:16am 10.8 NW 15 34 - - 5.4 - - - - - - -
17/08:00am 10.6 NW 14 20 - - 4.8 - - - - - - -
17/07:30am 11.0 WNW 14 26 - - 4.8 - - - - - - -
17/07:02am 10.8 W 19 29 - - 4.6 - - - - - - -
17/07:00am 10.8 W 19 25 - - 4.6 - - - - - - -
17/06:35am 11.6 NW 20 29 - - 3.8 - - - - - - -
17/06:30am 12.0 NW 27 40 - - 3.8 - - - - - - -
17/06:00am 13.2 NNW 23 34 - - 3.4 - - - - - - -
17/05:30am 12.8 NNW 22 34 - - 3.4 - - - - - - -
17/05:00am 12.8 NNW 24 35 - - 3.4 - - - - - - -
17/04:30am 13.0 NNW 25 35 - - 3.4 - - - - - - -
17/04:00am 12.9 NNW 24 36 - - 3.4 - - - - - - -
17/03:30am 12.7 NNW 24 35 - - 3.4 - - - - - - -
17/03:07am 12.8 NNW 20 30 - - 3.4 - - - - - - -
17/03:00am 12.4 NNW 18 27 - - 3.4 - - - - - - -
17/02:54am 12.1 NNW 16 27 - - 3.4 - - - - - - -
17/02:30am 11.9 NNW 16 22 - - 3.4 - - - - - - -
17/02:00am 11.9 NNW 15 23 - - 3.4 - - - - - - -
17/01:31am 12.3 NNW 18 28 - - 3.4 - - - - - - -
17/01:30am 12.3 NNW 19 28 - - 3.4 - - - - - - -
17/01:00am 12.3 NNW 19 26 - - 3.4 - - - - - - -
17/12:30am 12.6 NNW 20 27 - - 3.4 - - - - - - -
17/12:00am 12.7 NNW 18 27 - - 3.4 - - - - - - -
 
Date/Time
CST
Temp
°C
Wind Pressure Rain since
9am
mm
Weather Cloud Vis
km
Sea
Height
m
Swell
Dir  Spd
kts
Gust
kts
hPa Trend Height
m
Period
s
Dir
16/11:46pm 12.9 NNW 18 29 - - 3.4 - - - - - - -
16/11:30pm 13.0 NNW 19 28 - - 3.4 - - - - - - -
16/11:02pm 12.7 NNW 19 29 - - 3.4 - - - - - - -
16/11:00pm 12.9 NNW 20 29 - - 3.4 - - - - - - -
16/10:30pm 12.8 NNW 20 31 - - 3.4 - - - - - - -
16/10:10pm 12.6 NNW 19 29 - - 3.4 - - - - - - -
16/10:00pm 12.6 NNW 19 29 - - 3.4 - - - - - - -
16/09:45pm 12.7 NNW 17 29 - - 3.4 - - - - - - -
16/09:30pm 12.8 NNW 18 24 - - 3.4 - - - - - - -
16/09:00pm 12.7 NNW 17 26 - - 3.4 - - - - - - -
16/08:30pm 13.2 NNW 18 30 - - 3.4 - - - - - - -
16/08:06pm 13.2 NNW 16 26 - - 3.4 - - - - - - -
16/08:00pm 13.2 NNW 18 27 - - 3.4 - - - - - - -
16/07:41pm 13.1 NNW 18 29 - - 3.4 - - - - - - -
16/07:30pm 13.2 NNW 17 25 - - 3.4 - - - - - - -
16/07:23pm 13.2 NW 16 27 - - 3.4 - - - - - - -
16/07:00pm 13.3 NNW 15 23 - - 3.4 - - - - - - -
16/06:30pm 13.0 NW 18 26 - - 3.4 - - - - - - -
16/06:00pm 12.8 NW 17 24 - - 3.4 Recent precip. - - - - - -
16/05:43pm 12.5 NW 19 32 - - 3.4 - - - - - - -
16/05:30pm 13.3 NNW 15 21 - - 2.8 - - - - - - -
16/05:00pm 12.7 NW 15 22 - - 2.8 - - - - - - -
16/04:30pm 14.1 NW 17 24 - - 1.4 - - - - - - -
16/04:00pm 13.6 WNW 12 17 - - 1.4 - - - - - - -
16/03:30pm 13.3 NNW 12 18 - - 0.2 - - - - - - -
16/03:00pm 13.4 NNW 15 20 - - 0.0 - - - - - - -
16/02:30pm 13.7 NW 19 26 - - 0.0 - - - - - - -
16/02:00pm 13.7 NW 18 28 - - 0.0 - - - - - - -
16/01:59pm 13.7 NW 18 28 - - 0.0 - - - - - - -
16/01:30pm 13.7 NW 18 24 - - 0.0 - - - - - - -
16/01:00pm 13.3 NW 16 24 - - 0.0 - - - - - - -
16/12:30pm 14.5 NW 18 25 - - 0.0 - - - - - - -
16/12:00pm 14.1 NW 20 26 - - 0.0 - - - - - - -
16/11:30am 14.4 NW 18 27 - - 0.0 - - - - - - -
16/11:00am 13.9 WNW 19 25 - - 0.0 - - - - - - -
16/10:49am 13.9 WNW 16 27 - - 0.0 - - - - - - -
16/10:30am 13.8 NW 15 20 - - 0.0 - - - - - - -
16/10:00am 12.8 NW 12 18 - - 0.0 - - - - - - -
16/09:30am 12.0 NW 8 12 - - 0.0 - - - - - - -
16/09:00am 10.0 NW 6 8 - - 1.4 - - - - - - -
16/08:30am 8.3 NW 8 9 - - 1.4 - - - - - - -
16/08:00am 7.0 NW 7 8 - - 1.4 - - - - - - -
16/07:30am 7.4 WNW 7 9 - - 1.4 - - - - - - -
16/07:00am 7.3 WNW 8 10 - - 1.4 - - - - - - -
16/06:30am 6.8 W 7 8 - - 1.4 - - - - - - -
16/06:00am 7.1 W 9 10 - - 1.4 - - - - - - -
16/05:30am 7.4 W 8 10 - - 1.4 - - - - - - -
16/05:00am 8.5 WSW 8 10 - - 1.4 - - - - - - -
16/04:30am 9.6 WSW 12 15 - - 1.4 - - - - - - -
16/04:00am 10.4 WSW 9 13 - - 1.4 - - - - - - -
16/03:30am 10.2 WNW 7 10 - - 0.6 - - - - - - -
16/03:00am 9.8 NW 6 9 - - 0.6 - - - - - - -
16/02:30am 9.9 NW 8 11 - - 0.6 - - - - - - -
16/02:00am 10.6 NW 8 11 - - 0.6 - - - - - - -
16/01:30am 10.8 W 15 21 - - 0.6 - - - - - - -
16/01:19am 11.1 WNW 17 26 - - 0.4 - - - - - - -
16/01:15am 12.4 NW 15 26 - - 0.0 - - - - - - -
16/01:00am 12.3 NNW 9 15 - - 0.0 - - - - - - -
16/12:30am 11.7 NNW 7 10 - - 0.0 - - - - - - -
16/12:00am 10.8 NNW 7 8 - - 0.0 - - - - - - -
 
Date/Time
CST
Temp
°C
Wind Pressure Rain since
9am
mm
Weather Cloud Vis
km
Sea
Height
m
Swell
Dir  Spd
kts
Gust
kts
hPa Trend Height
m
Period
s
Dir
15/11:30pm 10.8 NNW 7 9 - - 0.0 - - - - - - -
15/11:00pm 10.3 NNW 6 7 - - 0.0 - - - - - - -
15/10:30pm 10.2 NNW 6 7 - - 0.0 - - - - - - -
15/10:00pm 10.2 NNW 5 7 - - 0.0 - - - - - - -
15/09:30pm 10.1 NNW 5 7 - - 0.0 - - - - - - -
15/09:00pm 9.6 NNE 5 5 - - 0.0 - - - - - - -
15/08:30pm 10.1 NNW 4 5 - - 0.0 - - - - - - -
15/08:00pm 9.5 NW 3 3 - - 0.0 - - - - - - -
15/07:30pm 9.8 N 5 7 - - 0.0 - - - - - - -
15/07:00pm 9.7 N 4 5 - - 0.0 - - - - - - -
15/06:30pm 9.9 N 4 5 - - 0.0 - - - - - - -
15/06:00pm 10.6 N 6 8 - - 0.0 - - - - - - -
15/05:30pm 10.9 N 7 11 - - 0.0 - - - - - - -
15/05:00pm 11.4 N 9 13 - - 0.0 - - - - - - -
15/04:30pm 11.6 N 10 13 - - 0.0 - - - - - - -
15/04:00pm 12.2 N 9 12 - - 0.0 - - - - - - -
15/03:30pm 12.1 N 13 18 - - 0.0 - - - - - - -
15/03:00pm 12.5 N 13 19 - - 0.0 - - - - - - -
15/02:30pm 12.1 NNE 9 13 - - 0.0 - - - - - - -
15/02:00pm 12.2 NNE 8 10 - - 0.0 - - - - - - -
15/01:30pm 12.5 N 10 13 - - 0.0 - - - - - - -
15/01:00pm 13.2 N 12 16 - - 0.0 - - - - - - -
15/12:30pm 13.6 N 11 15 - - 0.0 - - - - - - -
15/12:00pm 14.1 N 10 14 - - 0.0 - - - - - - -
15/11:30am 14.0 N 9 12 - - 0.0 - - - - - - -
15/11:00am 13.3 N 10 14 - - 0.0 - - - - - - -
15/10:30am 12.9 N 9 12 - - 0.0 - - - - - - -
15/10:00am 12.0 N 6 9 - - 0.0 - - - - - - -
15/09:30am 11.1 N 5 7 - - 0.0 - - - - - - -
15/09:00am 9.4 N 5 6 - - 1.6 - - - - - - -
15/08:30am 7.9 N 5 5 - - 1.6 - - - - - - -
15/08:00am 7.8 N 6 7 - - 1.6 - - - - - - -
15/07:30am 7.9 N 6 6 - - 1.4 - - - - - - -
15/07:00am 7.8 N 4 5 - - 1.4 - - - - - - -
15/06:30am 8.0 N 3 4 - - 1.4 - - - - - - -
15/06:00am 8.3 NW 2 3 - - 1.4 Recent precip. - - - - - -
15/05:30am 7.7 NW 5 7 - - 1.4 - - - - - - -
15/05:00am 8.6 N 4 4 - - 0.2 - - - - - - -
15/04:30am 8.8 N 3 4 - - 0.2 - - - - - - -
15/04:00am 8.9 N 4 4 - - 0.2 - - - - - - -
15/03:30am 8.2 N 4 4 - - 0.2 - - - - - - -
15/03:00am 8.6 N 3 4 - - 0.2 - - - - - - -
15/02:30am 6.4 W 4 7 - - 0.2 - - - - - - -
15/02:00am 6.9 N 5 6 - - 0.2 - - - - - - -
15/01:30am 8.1 NW 3 4 - - 0.2 - - - - - - -
15/01:00am 8.7 NW 4 5 - - 0.2 - - - - - - -
15/12:30am 9.0 NW 8 9 - - 0.2 - - - - - - -
15/12:00am 7.2 WSW 3 4 - - 0.0 - - - - - - -
 
Date/Time
CST
Temp
°C
Wind Pressure Rain since
9am
mm
Weather Cloud Vis
km
Sea
Height
m
Swell
Dir  Spd
kts
Gust
kts
hPa Trend Height
m
Period
s
Dir
14/11:30pm 8.3 WNW 4 4 - - 0.0 - - - - - - -
14/11:00pm 8.3 NW 4 4 - - 0.0 - - - - - - -
14/10:30pm 8.2 NW 4 5 - - 0.0 - - - - - - -
14/10:00pm 8.3 NW 6 11 - - 0.0 - - - - - - -
14/09:30pm 8.1 NNW 4 5 - - 0.0 - - - - - - -
14/09:00pm 7.5 WNW 5 5 - - 0.0 - - - - - - -
14/08:30pm 8.9 WNW 4 5 - - 0.0 - - - - - - -
14/08:00pm 8.7 W 6 7 - - 0.0 - - - - - - -
14/07:30pm 9.6 WNW 4 4 - - 0.0 - - - - - - -
14/07:00pm 9.9 NW 4 4 - - 0.0 - - - - - - -
14/06:30pm 10.2 NNW 4 4 - - 0.0 - - - - - - -
14/06:00pm 10.5 NNW 4 5 - - 0.0 - - - - - - -
14/05:30pm 11.4 NNW 4 5 - - 0.0 - - - - - - -

Other Formats:

Comma delimited format used in spreadsheet applications
http://www.bom.gov.au/fwo/IDS60701/IDS60701.94807.axf

JavaScript Object Notation format (JSON) in row-major order
http://www.bom.gov.au/fwo/IDS60701/IDS60701.94807.json